Time;durP1;ratioP1;P1;durP2;ratioP2;P2;SDS_P1;SDS_P2;PMS_P1;PMS_P2;Temp;Humidity;BMP_temperature;BMP_pressure;BME280_temperature;BME280_humidity;BME280_pressure;Samples;Min_cycle;Max_cycle;Signal;HPM_P1;HPM_P2
2021/01/07 00:00:03;;;;;;;0.00;0.00;;;15.00;67.80;;;;;;4214417;28;20520;-39
2021/01/07 00:02:32;;;;;;;0.00;0.00;;;15.00;67.90;;;;;;4214261;28;20517;-40
2021/01/07 00:04:53;;;;;;;0.03;0.03;;;14.90;67.80;;;;;;4214075;28;20127;-39
2021/01/07 00:07:15;;;;;;;0.00;0.00;;;14.90;67.70;;;;;;4214145;28;20056;-39
2021/01/07 00:09:36;;;;;;;0.10;0.10;;;14.90;67.80;;;;;;4214768;28;20048;-39
2021/01/07 00:11:57;;;;;;;0.00;0.00;;;14.90;67.80;;;;;;4214107;28;20453;-39
2021/01/07 00:14:19;;;;;;;0.00;0.00;;;14.90;67.90;;;;;;4214142;28;20048;-39
2021/01/07 00:16:41;;;;;;;0.00;0.00;;;14.90;68.80;;;;;;4214032;28;20058;-39
2021/01/07 00:19:03;;;;;;;0.00;0.00;;;15.00;67.40;;;;;;4214562;28;20105;-39
2021/01/07 00:21:24;;;;;;;0.00;0.00;;;15.20;66.70;;;;;;4214114;28;20060;-39
2021/01/07 00:23:45;;;;;;;0.00;0.00;;;15.30;66.20;;;;;;4213784;28;20769;-39
2021/01/07 00:26:05;;;;;;;0.03;0.03;;;15.30;66.00;;;;;;4213810;28;20062;-39
2021/01/07 00:28:26;;;;;;;0.00;0.00;;;15.40;65.80;;;;;;4214252;28;20056;-39
2021/01/07 00:30:47;;;;;;;0.00;0.00;;;15.30;65.90;;;;;;4214093;28;20078;-40
2021/01/07 00:33:10;;;;;;;0.00;0.00;;;15.30;65.90;;;;;;4214068;28;20079;-39
2021/01/07 00:35:31;;;;;;;0.00;0.00;;;15.50;65.40;;;;;;4213438;28;20067;-39
2021/01/07 00:37:52;;;;;;;0.00;0.00;;;15.70;64.40;;;;;;4213871;28;20509;-39
2021/01/07 00:40:13;;;;;;;0.00;0.00;;;15.90;63.70;;;;;;4213850;28;20056;-39
2021/01/07 00:42:37;;;;;;;0.00;0.00;;;16.00;63.30;;;;;;4213606;28;20059;-39
2021/01/07 00:44:57;;;;;;;0.00;0.00;;;15.90;63.20;;;;;;4197650;28;20748;-39
2021/01/07 00:47:18;;;;;;;0.00;0.00;;;15.90;63.30;;;;;;4213683;28;20302;-39
2021/01/07 00:49:44;;;;;;;0.00;0.00;;;15.80;63.50;;;;;;4213652;28;20075;-40
2021/01/07 00:52:09;;;;;;;0.00;0.00;;;15.80;63.80;;;;;;4212811;28;20059;-39
2021/01/07 00:54:30;;;;;;;1.27;0.65;;;15.80;64.00;;;;;;4212418;28;20144;-39
2021/01/07 00:56:53;;;;;;;0.00;0.00;;;15.80;63.70;;;;;;4212501;28;20044;-39
2021/01/07 00:59:20;;;;;;;0.00;0.00;;;15.90;63.30;;;;;;4213577;28;20126;-39
2021/01/07 01:01:44;;;;;;;0.50;0.50;;;16.00;62.90;;;;;;4213421;28;20551;-39
2021/01/07 01:04:05;;;;;;;0.00;0.00;;;16.00;62.80;;;;;;4213250;28;20087;-39
2021/01/07 01:06:33;;;;;;;0.00;0.00;;;16.00;62.90;;;;;;4213123;28;20055;-39
2021/01/07 01:08:54;;;;;;;0.32;0.32;;;15.90;63.00;;;;;;4213628;28;20109;-39
2021/01/07 01:11:15;;;;;;;0.20;0.20;;;15.90;63.30;;;;;;4213029;28;20056;-39
2021/01/07 01:13:36;;;;;;;0.10;0.10;;;15.90;63.20;;;;;;4213579;28;20048;-39
2021/01/07 01:15:56;;;;;;;0.00;0.00;;;15.90;63.20;;;;;;4213300;28;20407;-39
2021/01/07 01:18:17;;;;;;;0.00;0.00;;;15.80;63.10;;;;;;4213314;28;20048;-39
2021/01/07 01:20:38;;;;;;;0.00;0.00;;;15.80;63.40;;;;;;4213128;28;20059;-39
2021/01/07 01:23:00;;;;;;;0.35;0.35;;;15.70;63.60;;;;;;4213184;28;20486;-39
2021/01/07 01:25:21;;;;;;;0.00;0.00;;;15.70;63.90;;;;;;4212906;28;20101;-39
2021/01/07 01:27:44;;;;;;;0.00;0.00;;;15.70;63.80;;;;;;4213097;28;20083;-40
2021/01/07 01:30:06;;;;;;;0.00;0.00;;;15.90;63.20;;;;;;4212218;28;20079;-40
2021/01/07 01:32:27;;;;;;;0.00;0.00;;;16.10;62.20;;;;;;4213416;28;20417;-39
2021/01/07 01:34:49;;;;;;;0.10;0.10;;;16.20;61.80;;;;;;4212841;28;20130;-39
2021/01/07 01:37:10;;;;;;;0.00;0.00;;;16.20;61.60;;;;;;4212942;28;20079;-39
2021/01/07 01:39:32;;;;;;;0.00;0.00;;;16.20;61.60;;;;;;4212446;28;20052;-40
2021/01/07 01:41:53;;;;;;;0.30;0.30;;;16.20;62.70;;;;;;4212754;28;20048;-39
2021/01/07 01:44:14;;;;;;;0.05;0.05;;;16.10;62.00;;;;;;4212485;28;20055;-39
2021/01/07 01:46:36;;;;;;;0.00;0.00;;;16.20;62.00;;;;;;4212095;28;20121;-39
2021/01/07 01:48:57;;;;;;;;;;;16.10;62.10;;;;;;4212957;28;20093;-39
2021/01/07 01:51:18;;;;;;;0.00;0.00;;;16.00;62.20;;;;;;4212862;28;19977;-39
2021/01/07 01:53:39;;;;;;;;;;;16.00;62.40;;;;;;4212893;28;20135;-39
2021/01/07 01:56:02;;;;;;;0.00;0.00;;;16.00;62.30;;;;;;4212450;28;19928;-39
2021/01/07 01:58:23;;;;;;;0.00;0.00;;;16.00;62.20;;;;;;4211865;28;20052;-39
2021/01/07 02:00:44;;;;;;;0.03;0.03;;;16.00;62.20;;;;;;4212680;28;20083;-39
2021/01/07 02:03:07;;;;;;;0.00;0.00;;;16.00;62.40;;;;;;4212503;28;20071;-40
2021/01/07 02:05:28;;;;;;;0.00;0.00;;;15.90;62.70;;;;;;4212637;28;20097;-39
2021/01/07 02:07:50;;;;;;;0.00;0.00;;;15.80;62.90;;;;;;4211210;28;20083;-39
2021/01/07 02:10:15;;;;;;;0.00;0.00;;;15.80;62.90;;;;;;4212177;28;20434;-39
2021/01/07 02:12:43;;;;;;;0.00;0.00;;;15.90;62.90;;;;;;4212534;28;20159;-39
2021/01/07 02:15:05;;;;;;;1.25;1.10;;;15.90;62.70;;;;;;4212430;28;20076;-39
2021/01/07 02:17:26;;;;;;;0.20;0.20;;;16.10;62.30;;;;;;4212464;28;20055;-39
2021/01/07 02:19:47;;;;;;;0.00;0.00;;;16.30;61.50;;;;;;4212249;28;20410;-39
2021/01/07 02:22:11;;;;;;;0.00;0.00;;;16.50;60.80;;;;;;4212324;28;20052;-39
2021/01/07 02:24:33;;;;;;;0.00;0.00;;;16.50;60.30;;;;;;4212476;28;20088;-39
2021/01/07 02:26:56;;;;;;;0.00;0.00;;;16.50;60.30;;;;;;4212168;28;20056;-39
2021/01/07 02:29:17;;;;;;;0.00;0.00;;;16.50;60.50;;;;;;4212219;28;20048;-39
2021/01/07 02:31:38;;;;;;;0.37;0.37;;;16.50;60.70;;;;;;4211387;28;20056;-39
2021/01/07 02:33:58;;;;;;;0.00;0.00;;;16.40;60.70;;;;;;4211874;28;20306;-39
2021/01/07 02:36:19;;;;;;;0.00;0.00;;;16.40;60.70;;;;;;4195981;28;20109;-39
2021/01/07 02:38:41;;;;;;;0.00;0.00;;;16.40;60.80;;;;;;4202105;28;20094;-39
2021/01/07 02:41:02;;;;;;;;;;;16.30;60.90;;;;;;4213235;28;20089;-39
2021/01/07 02:43:23;;;;;;;0.00;0.00;;;16.30;61.30;;;;;;4215529;28;19924;-39
2021/01/07 02:45:43;;;;;;;0.00;0.00;;;16.10;61.50;;;;;;4215952;28;20464;-39
2021/01/07 02:48:05;;;;;;;0.00;0.00;;;16.00;62.00;;;;;;4215499;28;20064;-39
2021/01/07 02:50:26;;;;;;;0.00;0.00;;;15.90;62.40;;;;;;4215680;28;20401;-39
2021/01/07 02:52:47;;;;;;;0.00;0.00;;;16.00;62.50;;;;;;4215561;28;20566;-39
2021/01/07 02:55:10;;;;;;;0.00;0.00;;;16.10;62.90;;;;;;4215370;28;20109;-39
2021/01/07 02:57:32;;;;;;;0.00;0.00;;;16.10;61.80;;;;;;4215328;28;20063;-39
2021/01/07 02:59:53;;;;;;;0.00;0.00;;;16.10;61.70;;;;;;4201634;28;20123;-39
2021/01/07 03:02:14;;;;;;;0.63;0.22;;;16.10;61.80;;;;;;4215068;28;20131;-39
2021/01/07 03:04:35;;;;;;;0.40;0.40;;;16.20;61.40;;;;;;4215391;28;20062;-39
2021/01/07 03:06:56;;;;;;;0.80;0.28;;;16.40;61.00;;;;;;4215305;28;20819;-39
2021/01/07 03:09:17;;;;;;;0.00;0.00;;;16.50;60.50;;;;;;4215208;28;20131;-39
2021/01/07 03:11:39;;;;;;;0.00;0.00;;;16.50;60.40;;;;;;4213935;28;20138;-39
2021/01/07 03:13:59;;;;;;;0.00;0.00;;;16.40;60.40;;;;;;4215207;28;20052;-39
2021/01/07 03:16:20;;;;;;;0.00;0.00;;;16.40;60.60;;;;;;4214963;28;20054;-39
2021/01/07 03:18:41;;;;;;;0.00;0.00;;;16.30;60.80;;;;;;4215138;28;20048;-39
2021/01/07 03:21:02;;;;;;;0.00;0.00;;;16.20;61.20;;;;;;4215122;28;20058;-39
2021/01/07 03:23:23;;;;;;;0.47;0.47;;;16.20;61.40;;;;;;4215377;28;20140;-38
2021/01/07 03:25:46;;;;;;;0.00;0.00;;;16.20;61.40;;;;;;4214803;28;20055;-39
2021/01/07 03:28:08;;;;;;;0.17;0.17;;;16.20;61.20;;;;;;4214938;28;20044;-39
2021/01/07 03:30:29;;;;;;;0.00;0.00;;;16.30;61.00;;;;;;4215388;28;20512;-38
2021/01/07 03:32:50;;;;;;;0.10;0.10;;;16.30;60.90;;;;;;4214985;28;20067;-39
2021/01/07 03:35:11;;;;;;;0.00;0.00;;;16.30;60.80;;;;;;4213790;28;20085;-39
2021/01/07 03:37:32;;;;;;;0.00;0.00;;;16.30;60.90;;;;;;4201901;28;20490;-39
2021/01/07 03:39:53;;;;;;;9.02;2.63;;;16.20;61.00;;;;;;4214669;28;20056;-39
2021/01/07 03:42:14;;;;;;;0.00;0.00;;;16.20;61.20;;;;;;4214597;28;20803;-39
2021/01/07 03:44:36;;;;;;;0.08;0.08;;;16.10;61.60;;;;;;4214821;28;20651;-39
2021/01/07 03:46:57;;;;;;;0.00;0.00;;;15.90;61.90;;;;;;4214689;28;20388;-39
2021/01/07 03:49:17;;;;;;;0.00;0.00;;;15.80;62.30;;;;;;4214677;28;20059;-39
2021/01/07 03:51:38;;;;;;;0.00;0.00;;;15.80;62.70;;;;;;4214085;28;20843;-39
2021/01/07 03:53:59;;;;;;;0.00;0.00;;;15.70;63.00;;;;;;4214581;28;20052;-39
2021/01/07 03:56:20;;;;;;;0.00;0.00;;;15.80;62.70;;;;;;4214013;28;20126;-39
2021/01/07 03:58:41;;;;;;;0.00;0.00;;;16.00;61.90;;;;;;4214785;28;20052;-39
2021/01/07 04:01:03;;;;;;;0.00;0.00;;;16.20;61.20;;;;;;4215018;28;20056;-39
2021/01/07 04:03:24;;;;;;;0.50;0.43;;;16.40;60.60;;;;;;4214275;28;20077;-39
2021/01/07 04:05:44;;;;;;;0.00;0.00;;;16.50;60.40;;;;;;4214320;28;20063;-39
2021/01/07 04:08:05;;;;;;;0.35;0.35;;;16.50;60.00;;;;;;4214103;28;20056;-39
2021/01/07 04:10:26;;;;;;;0.00;0.00;;;16.60;59.90;;;;;;4214081;28;20048;-39
2021/01/07 04:12:47;;;;;;;0.00;0.00;;;16.50;59.90;;;;;;4214399;28;20062;-39
2021/01/07 04:15:09;;;;;;;0.00;0.00;;;16.50;60.00;;;;;;4214247;28;20417;-39
2021/01/07 04:17:32;;;;;;;0.00;0.00;;;16.50;60.10;;;;;;4214428;28;20486;-39
2021/01/07 04:19:52;;;;;;;0.00;0.00;;;16.50;60.20;;;;;;4214164;28;20060;-39
2021/01/07 04:22:13;;;;;;;0.00;0.00;;;16.40;60.40;;;;;;4214272;28;20109;-39
2021/01/07 04:24:34;;;;;;;0.00;0.00;;;16.30;60.60;;;;;;4213979;28;20074;-39
2021/01/07 04:26:55;;;;;;;0.00;0.00;;;16.20;60.90;;;;;;4213701;28;20134;-39
2021/01/07 04:29:16;;;;;;;0.00;0.00;;;16.30;61.00;;;;;;4214252;28;20493;-39
2021/01/07 04:31:37;;;;;;;0.10;0.10;;;16.30;60.70;;;;;;4214289;28;20048;-39
2021/01/07 04:33:58;;;;;;;0.00;0.00;;;16.40;61.20;;;;;;4213713;28;20048;-39
2021/01/07 04:36:19;;;;;;;0.08;0.08;;;16.50;60.10;;;;;;4208742;28;20075;-39
2021/01/07 04:38:40;;;;;;;0.00;0.00;;;16.50;60.00;;;;;;4213674;28;20048;-39
2021/01/07 04:41:01;;;;;;;0.13;0.13;;;16.50;60.10;;;;;;4213485;28;20125;-39
2021/01/07 04:43:23;;;;;;;0.00;0.00;;;16.50;60.20;;;;;;4214085;28;20564;-39
2021/01/07 04:45:44;;;;;;;0.10;0.10;;;16.60;59.70;;;;;;4213722;28;20052;-39
2021/01/07 04:48:08;;;;;;;0.00;0.00;;;16.70;59.30;;;;;;4213873;28;20619;-39
2021/01/07 04:50:29;;;;;;;0.00;0.00;;;16.80;59.10;;;;;;4213716;28;20145;-39
2021/01/07 04:52:50;;;;;;;0.00;0.00;;;16.70;59.10;;;;;;4213776;28;20059;-39
2021/01/07 04:55:12;;;;;;;0.00;0.00;;;16.70;59.30;;;;;;4213153;28;20098;-39
2021/01/07 04:57:33;;;;;;;0.00;0.00;;;16.60;59.50;;;;;;4213667;28;20414;-39
2021/01/07 04:59:53;;;;;;;0.00;0.00;;;16.50;59.80;;;;;;4213663;28;20055;-39
2021/01/07 05:02:15;;;;;;;0.00;0.00;;;16.60;59.80;;;;;;4213462;28;20101;-39
2021/01/07 05:04:47;;;;;;;0.00;0.00;;;16.60;59.60;;;;;;4211899;28;20322;-39
2021/01/07 05:07:09;;;;;;;0.70;0.70;;;16.70;59.50;;;;;;4213818;28;20052;-39
2021/01/07 05:09:32;;;;;;;0.00;0.00;;;16.60;59.40;;;;;;4211981;28;20122;-39
2021/01/07 05:11:52;;;;;;;0.00;0.00;;;16.60;59.70;;;;;;4213033;28;20055;-39
2021/01/07 05:14:13;;;;;;;0.00;0.00;;;16.50;59.80;;;;;;4213697;28;20052;-39
2021/01/07 05:16:34;;;;;;;0.00;0.00;;;16.50;59.80;;;;;;4213864;28;20498;-39
2021/01/07 05:18:55;;;;;;;;;;;16.50;60.10;;;;;;4214117;28;20067;-39
2021/01/07 05:21:16;;;;;;;0.00;0.00;;;16.30;60.30;;;;;;4212971;28;20377;-39
2021/01/07 05:23:39;;;;;;;0.00;0.00;;;16.30;60.70;;;;;;4213256;28;20048;-39
2021/01/07 05:26:00;;;;;;;0.00;0.00;;;16.30;60.70;;;;;;4213099;28;20075;-39
2021/01/07 05:28:21;;;;;;;0.17;0.17;;;16.40;60.60;;;;;;4213213;28;20052;-39
2021/01/07 05:30:44;;;;;;;0.00;0.00;;;16.40;60.50;;;;;;4213108;28;20486;-39
2021/01/07 05:33:06;;;;;;;0.00;0.00;;;16.30;60.60;;;;;;4213103;28;20048;-39
2021/01/07 05:35:27;;;;;;;0.00;0.00;;;16.40;60.50;;;;;;4212862;28;20449;-39
2021/01/07 05:37:48;;;;;;;2.20;0.25;;;16.50;60.00;;;;;;4196061;28;20052;-40
2021/01/07 05:40:11;;;;;;;0.00;0.00;;;16.60;59.70;;;;;;4198035;28;20060;-39
2021/01/07 05:42:39;;;;;;;0.00;0.00;;;16.60;59.60;;;;;;4212743;28;20502;-39
2021/01/07 05:45:05;;;;;;;0.00;0.00;;;16.60;59.70;;;;;;4213065;28;20109;-39
2021/01/07 05:47:28;;;;;;;4.68;1.02;;;16.50;59.80;;;;;;4212903;28;20051;-39
2021/01/07 05:49:50;;;;;;;0.00;0.00;;;16.50;59.90;;;;;;4212804;28;20136;-40
2021/01/07 05:52:11;;;;;;;0.00;0.00;;;16.40;60.10;;;;;;4212672;28;20506;-39
2021/01/07 05:54:33;;;;;;;0.00;0.00;;;16.30;60.40;;;;;;4212302;28;20105;-39
2021/01/07 05:56:55;;;;;;;0.05;0.05;;;16.30;60.80;;;;;;4212557;28;20047;-39
2021/01/07 05:59:16;;;;;;;0.00;0.00;;;16.30;60.70;;;;;;4212832;28;20048;-39
2021/01/07 06:01:40;;;;;;;0.00;0.00;;;16.30;60.70;;;;;;4212601;28;20048;-40
2021/01/07 06:04:04;;;;;;;0.00;0.00;;;16.20;60.80;;;;;;4212161;28;20059;-39
2021/01/07 06:06:26;;;;;;;0.00;0.00;;;16.10;61.00;;;;;;4212900;28;20067;-39
2021/01/07 06:08:49;;;;;;;0.00;0.00;;;16.20;60.90;;;;;;4212453;28;20044;-39
2021/01/07 06:11:11;;;;;;;0.00;0.00;;;16.30;60.60;;;;;;4212143;28;20055;-39
2021/01/07 06:13:32;;;;;;;0.00;0.00;;;16.40;60.10;;;;;;4212380;28;20052;-39
2021/01/07 06:15:53;;;;;;;0.00;0.00;;;16.50;59.80;;;;;;4211713;28;20068;-39
2021/01/07 06:18:16;;;;;;;0.00;0.00;;;16.60;59.60;;;;;;4212509;28;20081;-39
2021/01/07 06:20:37;;;;;;;0.00;0.00;;;16.60;59.50;;;;;;4212373;28;20494;-39
2021/01/07 06:22:58;;;;;;;0.08;0.08;;;16.70;59.40;;;;;;4212589;28;20079;-39
2021/01/07 06:25:21;;;;;;;0.00;0.00;;;16.80;59.10;;;;;;4212136;28;20048;-39
2021/01/07 06:27:43;;;;;;;0.00;0.00;;;16.90;58.70;;;;;;4212562;28;20472;-39
2021/01/07 06:30:34;;;;;;;0.00;0.00;;;17.00;58.20;;;;;;4212378;28;20113;-39
2021/01/07 06:33:02;;;;;;;0.00;0.00;;;17.20;58.00;;;;;;4212162;28;20113;-39
2021/01/07 06:35:31;;;;;;;0.00;0.00;;;17.10;58.00;;;;;;4211119;28;20048;-40
2021/01/07 06:37:53;;;;;;;0.00;0.00;;;17.00;58.20;;;;;;4212410;28;20131;-39
2021/01/07 06:40:16;;;;;;;0.00;0.00;;;16.90;58.50;;;;;;4211956;28;20056;-38
2021/01/07 06:42:39;;;;;;;0.00;0.00;;;16.80;58.90;;;;;;4212124;28;20410;-39
2021/01/07 06:45:03;;;;;;;0.00;0.00;;;16.70;59.20;;;;;;4212142;28;20059;-39
2021/01/07 06:47:25;;;;;;;0.00;0.00;;;16.60;59.30;;;;;;4212245;28;20072;-39
2021/01/07 06:49:47;;;;;;;0.00;0.00;;;16.60;59.50;;;;;;4212342;28;20084;-39
2021/01/07 06:52:08;;;;;;;0.00;0.00;;;16.50;59.60;;;;;;4212252;28;20105;-39
2021/01/07 06:54:32;;;;;;;0.00;0.00;;;16.40;59.90;;;;;;4212251;28;20047;-39
2021/01/07 06:56:54;;;;;;;0.00;0.00;;;16.40;60.30;;;;;;4195439;28;20506;-39
2021/01/07 06:59:15;;;;;;;0.00;0.00;;;16.50;60.20;;;;;;4195443;28;20056;-39
2021/01/07 07:01:47;;;;;;;0.00;0.00;;;16.60;60.10;;;;;;4195754;28;20387;-39
2021/01/07 07:04:10;;;;;;;0.00;0.00;;;16.60;60.00;;;;;;4195476;28;20074;-39
2021/01/07 07:06:33;;;;;;;0.10;0.10;;;16.70;60.30;;;;;;4210706;28;20130;-39
2021/01/07 07:08:54;;;;;;;0.00;0.00;;;16.70;60.40;;;;;;4211800;28;20075;-38
2021/01/07 07:11:34;;;;;;;0.00;0.00;;;16.60;60.40;;;;;;4212093;28;20135;-38
2021/01/07 07:13:59;;;;;;;0.00;0.00;;;16.60;61.80;;;;;;4211576;28;20159;-39
2021/01/07 07:16:20;;;;;;;0.00;0.00;;;16.40;61.40;;;;;;4211764;28;20059;-38
2021/01/07 07:18:40;;;;;;;0.20;0.20;;;16.60;61.80;;;;;;4212211;28;20471;-38
2021/01/07 07:21:16;;;;;;;0.00;0.00;;;16.70;61.10;;;;;;4211859;28;20048;-38
2021/01/07 07:23:39;;;;;;;0.00;0.00;;;16.80;60.60;;;;;;4211975;28;20094;-38
2021/01/07 07:26:00;;;;;;;0.00;0.00;;;16.80;60.50;;;;;;4211508;28;20097;-38
2021/01/07 07:28:23;;;;;;;0.00;0.00;;;16.80;60.40;;;;;;4210453;28;20048;-38
2021/01/07 07:30:47;;;;;;;0.00;0.00;;;16.70;60.50;;;;;;4214598;28;20056;-38
2021/01/07 07:33:08;;;;;;;0.00;0.00;;;16.80;60.40;;;;;;4214771;28;20145;-39
2021/01/07 07:35:34;;;;;;;0.00;0.00;;;16.70;60.30;;;;;;4214839;28;20075;-38
2021/01/07 07:37:57;;;;;;;0.00;0.00;;;16.70;60.40;;;;;;4214746;28;20143;-39
2021/01/07 07:40:33;;;;;;;0.10;0.10;;;16.70;60.60;;;;;;4214786;28;20106;-38
2021/01/07 07:42:57;;;;;;;0.00;0.00;;;16.70;60.60;;;;;;4214935;28;20505;-38
2021/01/07 07:45:23;;;;;;;0.00;0.00;;;16.70;60.60;;;;;;4214627;28;20490;-38
2021/01/07 07:47:44;;;;;;;0.20;0.20;;;16.60;60.70;;;;;;4214735;28;20048;-39
2021/01/07 07:50:07;;;;;;;0.00;0.00;;;16.60;60.80;;;;;;4214853;28;20567;-38
2021/01/07 07:52:28;;;;;;;0.00;0.00;;;16.70;60.60;;;;;;4214606;28;20498;-38
2021/01/07 07:55:02;;;;;;;0.03;0.03;;;16.70;60.30;;;;;;4214817;28;20503;-38
2021/01/07 07:57:23;;;;;;;0.00;0.00;;;16.80;60.10;;;;;;4214664;28;20051;-38
2021/01/07 07:59:45;;;;;;;0.00;0.00;;;16.90;59.90;;;;;;4214832;28;20044;-38
2021/01/07 08:02:16;;;;;;;0.00;0.00;;;16.90;59.70;;;;;;4214409;28;20062;-39
2021/01/07 08:04:43;;;;;;;0.00;0.00;;;16.90;59.80;;;;;;4214316;28;20058;-38
2021/01/07 08:07:09;;;;;;;0.00;0.00;;;16.80;59.90;;;;;;4214715;28;20048;-38
2021/01/07 08:09:30;;;;;;;0.00;0.00;;;16.80;60.00;;;;;;4212269;28;20580;-38
2021/01/07 08:11:53;;;;;;;0.00;0.00;;;16.90;59.80;;;;;;4214047;28;20048;-38
2021/01/07 08:14:32;;;;;;;0.10;0.10;;;17.10;59.50;;;;;;4211302;28;20052;-38
2021/01/07 08:16:55;;;;;;;0.20;0.20;;;17.20;59.10;;;;;;4213542;28;20143;-39
2021/01/07 08:19:24;;;;;;;0.25;0.25;;;17.30;58.90;;;;;;4213511;28;20229;-38
2021/01/07 08:21:46;;;;;;;0.30;0.30;;;17.30;58.80;;;;;;4213823;28;20525;-38
2021/01/07 08:24:10;;;;;;;0.00;0.00;;;17.20;58.90;;;;;;4213910;28;20048;-38
2021/01/07 08:26:32;;;;;;;0.00;0.00;;;17.10;59.10;;;;;;4197285;28;20087;-38
2021/01/07 08:28:55;;;;;;;0.10;0.10;;;17.10;59.40;;;;;;4202532;28;20048;-38
2021/01/07 08:31:19;;;;;;;0.00;0.00;;;16.90;59.70;;;;;;4214528;28;20131;-39
2021/01/07 08:33:41;;;;;;;3.20;0.63;;;16.80;60.20;;;;;;4214390;28;20497;-39
2021/01/07 08:36:05;;;;;;;0.00;0.00;;;16.70;60.80;;;;;;4212543;28;20056;-38
2021/01/07 08:38:29;;;;;;;0.00;0.00;;;16.60;61.20;;;;;;4206008;28;20673;-39
2021/01/07 08:40:50;;;;;;;0.00;0.00;;;16.60;61.30;;;;;;4213718;28;20052;-39
2021/01/07 08:43:12;;;;;;;0.00;0.00;;;16.60;61.40;;;;;;4213724;28;20502;-38
2021/01/07 08:45:36;;;;;;;0.98;0.85;;;16.60;61.50;;;;;;4213681;28;20106;-38
2021/01/07 08:48:05;;;;;;;0.00;0.00;;;16.50;61.80;;;;;;4213619;28;20490;-38
2021/01/07 08:50:31;;;;;;;0.00;0.00;;;16.50;61.80;;;;;;4197027;28;20459;-38
2021/01/07 08:52:53;;;;;;;0.00;0.00;;;16.60;61.70;;;;;;4210589;28;20072;-39
2021/01/07 08:55:15;;;;;;;0.00;0.00;;;16.50;61.80;;;;;;4212826;28;20055;-39
2021/01/07 08:57:36;;;;;;;0.00;0.00;;;16.50;62.00;;;;;;4213351;28;20052;-39
2021/01/07 08:59:56;;;;;;;0.40;0.40;;;16.40;62.30;;;;;;4213534;28;20147;-40
2021/01/07 09:02:20;;;;;;;0.05;0.05;;;16.30;62.60;;;;;;4213475;28;20802;-39
2021/01/07 09:04:43;;;;;;;0.00;0.00;;;16.20;62.90;;;;;;4213751;28;20126;-38
2021/01/07 09:07:07;;;;;;;0.00;0.00;;;16.30;62.90;;;;;;4196603;28;20461;-38
2021/01/07 09:09:42;;;;;;;0.00;0.00;;;16.50;62.40;;;;;;4212298;28;20056;-39
2021/01/07 09:12:18;;;;;;;0.00;0.00;;;16.60;61.90;;;;;;4212714;28;20052;-39
2021/01/07 09:14:59;;;;;;;0.10;0.10;;;16.60;61.60;;;;;;4213683;28;20800;-38
2021/01/07 09:17:24;;;;;;;0.00;0.00;;;16.70;61.80;;;;;;4213393;28;20414;-38
2021/01/07 09:19:45;;;;;;;0.15;0.15;;;16.70;61.80;;;;;;4213122;28;20063;-39
2021/01/07 09:22:06;;;;;;;0.10;0.10;;;16.70;62.10;;;;;;4199733;28;20068;-38
2021/01/07 09:24:32;;;;;;;0.00;0.00;;;16.60;62.40;;;;;;4211852;28;20059;-42
2021/01/07 09:26:53;;;;;;;0.00;0.00;;;16.60;62.70;;;;;;4206494;28;20048;-38
2021/01/07 09:29:14;;;;;;;2.53;1.75;;;16.50;63.00;;;;;;4213252;28;20044;-38
2021/01/07 09:31:35;;;;;;;0.00;0.00;;;16.50;62.90;;;;;;4211605;28;20522;-39
2021/01/07 09:33:57;;;;;;;0.10;0.10;;;16.60;62.60;;;;;;4210271;28;20056;-39
2021/01/07 09:36:19;;;;;;;0.00;0.00;;;16.70;62.20;;;;;;4211527;28;20059;-39
2021/01/07 09:38:40;;;;;;;0.15;0.15;;;16.60;62.20;;;;;;4212546;28;20044;-39
2021/01/07 09:41:01;;;;;;;0.00;0.00;;;16.60;62.30;;;;;;4210859;28;20060;-39
2021/01/07 09:43:22;;;;;;;0.00;0.00;;;16.60;63.10;;;;;;4212533;28;20071;-44
2021/01/07 09:45:44;;;;;;;0.00;0.00;;;16.50;63.80;;;;;;4212470;28;20079;-41
2021/01/07 09:48:05;;;;;;;0.63;0.63;;;16.50;64.60;;;;;;4212945;28;20081;-42
2021/01/07 09:50:27;;;;;;;0.10;0.10;;;16.60;64.80;;;;;;4212377;28;20079;-40
2021/01/07 09:52:48;;;;;;;0.45;0.45;;;16.80;65.50;;;;;;4212969;28;20052;-41
2021/01/07 09:55:09;;;;;;;0.00;0.00;;;16.80;64.70;;;;;;4212541;28;20502;-40
2021/01/07 09:57:32;;;;;;;0.00;0.00;;;16.80;64.90;;;;;;4212290;28;20052;-40
2021/01/07 09:59:53;;;;;;;4.53;0.82;;;16.80;65.00;;;;;;4212757;28;20058;-40
2021/01/07 10:02:15;;;;;;;1.02;1.02;;;16.90;64.30;;;;;;4212303;28;20051;-39
2021/01/07 10:04:36;;;;;;;0.00;0.00;;;16.90;64.50;;;;;;4212721;28;20067;-39
2021/01/07 10:06:59;;;;;;;0.10;0.10;;;16.80;64.90;;;;;;4212435;28;20056;-39
2021/01/07 10:09:20;;;;;;;0.00;0.00;;;16.80;65.40;;;;;;4211942;28;20052;-39
2021/01/07 10:11:41;;;;;;;0.00;0.00;;;16.90;65.40;;;;;;4212662;28;20052;-39
2021/01/07 10:14:02;;;;;;;;;;;17.10;65.00;;;;;;4213079;28;20060;-38
2021/01/07 10:16:23;;;;;;;2.72;0.88;;;17.10;65.40;;;;;;4212653;28;19943;-39
2021/01/07 10:18:44;;;;;;;0.00;0.00;;;17.10;64.30;;;;;;4211289;28;20522;-38
2021/01/07 10:21:08;;;;;;;0.00;0.00;;;17.00;64.40;;;;;;4212655;28;20079;-38
2021/01/07 10:23:30;;;;;;;0.45;0.45;;;17.00;65.00;;;;;;4212253;28;20048;-38
2021/01/07 10:25:51;;;;;;;0.00;0.00;;;16.90;65.00;;;;;;4212359;28;20139;-39
2021/01/07 10:28:13;;;;;;;0.00;0.00;;;16.80;65.40;;;;;;4212457;28;20048;-39
2021/01/07 10:30:37;;;;;;;0.00;0.00;;;16.70;65.90;;;;;;4212600;28;20421;-39
2021/01/07 10:32:58;;;;;;;0.00;0.00;;;16.70;66.20;;;;;;4212223;28;20052;-39
2021/01/07 10:35:20;;;;;;;0.00;0.00;;;16.60;67.30;;;;;;4212406;28;20552;-39
2021/01/07 10:37:43;;;;;;;0.00;0.00;;;16.60;66.80;;;;;;4212059;28;20060;-39
2021/01/07 10:40:09;;;;;;;0.10;0.10;;;16.70;66.70;;;;;;4210526;28;20422;-40
2021/01/07 10:42:30;;;;;;;0.00;0.00;;;16.80;66.20;;;;;;4211924;28;20090;-39
2021/01/07 10:44:52;;;;;;;;;;;16.90;66.00;;;;;;4212564;28;20040;-39
2021/01/07 10:47:14;;;;;;;0.00;0.00;;;16.90;66.00;;;;;;4212243;28;19932;-39
2021/01/07 10:49:37;;;;;;;16.40;1.35;;;16.80;66.40;;;;;;4211862;28;20145;-48
2021/01/07 10:52:22;;;;;;;0.00;0.00;;;16.80;66.30;;;;;;4212607;28;20052;-39
2021/01/07 10:54:54;;;;;;;0.10;0.10;;;16.90;65.90;;;;;;4211872;28;20056;-39
2021/01/07 10:57:30;;;;;;;;;;;17.00;65.30;;;;;;4212188;28;20048;-39
2021/01/07 11:00:06;;;;;;;0.00;0.00;;;17.00;65.10;;;;;;4211295;28;19927;-39
2021/01/07 11:02:48;;;;;;;1.40;1.30;;;17.00;65.00;;;;;;4205098;28;20143;-39
2021/01/07 11:05:13;;;;;;;;;;;17.00;65.10;;;;;;4215689;28;20097;-38
2021/01/07 11:07:43;;;;;;;0.00;0.00;;;16.90;65.10;;;;;;4215383;28;19924;-39
2021/01/07 11:10:06;;;;;;;1.45;1.35;;;16.90;65.40;;;;;;4214737;28;20097;-39
2021/01/07 11:12:40;;;;;;;0.13;0.13;;;16.90;65.50;;;;;;4213058;28;20051;-40
2021/01/07 11:15:04;;;;;;;0.03;0.03;;;16.80;65.50;;;;;;4215296;28;20052;-39
2021/01/07 11:17:26;;;;;;;0.10;0.10;;;16.80;65.70;;;;;;4214218;28;20052;-39
2021/01/07 11:19:49;;;;;;;0.00;0.00;;;16.80;65.50;;;;;;4198686;28;20053;-38
2021/01/07 11:22:19;;;;;;;0.00;0.00;;;16.90;65.20;;;;;;4212205;28;20048;-39
2021/01/07 11:24:41;;;;;;;0.00;0.00;;;16.90;65.00;;;;;;4215132;28;20078;-40
2021/01/07 11:27:04;;;;;;;0.05;0.05;;;16.90;65.00;;;;;;4214594;28;20133;-39
2021/01/07 11:29:27;;;;;;;0.00;0.00;;;16.80;65.20;;;;;;4214888;28;20150;-38
2021/01/07 11:31:48;;;;;;;0.10;0.10;;;16.80;65.60;;;;;;4215110;28;20056;-39
2021/01/07 11:34:12;;;;;;;0.00;0.00;;;16.70;65.90;;;;;;4214748;28;20067;-39
2021/01/07 11:36:41;;;;;;;0.85;0.82;;;16.60;67.30;;;;;;4214653;28;20458;-39
2021/01/07 11:39:03;;;;;;;1.45;1.17;;;16.50;67.00;;;;;;4214717;28;20063;-39
2021/01/07 11:41:39;;;;;;;0.00;0.00;;;16.40;67.50;;;;;;4214260;28;20047;-39
2021/01/07 11:44:12;;;;;;;0.75;0.75;;;16.50;67.00;;;;;;4214795;28;20056;-39
2021/01/07 11:46:36;;;;;;;0.00;0.00;;;16.60;66.30;;;;;;4214445;28;20056;-42
2021/01/07 11:48:58;;;;;;;2.40;0.70;;;16.80;65.80;;;;;;4214531;28;20114;-39
2021/01/07 11:51:19;;;;;;;0.00;0.00;;;16.70;65.60;;;;;;4214535;28;20418;-39
2021/01/07 11:53:41;;;;;;;0.00;0.00;;;16.70;65.70;;;;;;4214505;28;20052;-39
2021/01/07 11:56:03;;;;;;;0.03;0.03;;;16.60;65.90;;;;;;4214392;28;20150;-39
2021/01/07 11:58:27;;;;;;;0.00;0.00;;;16.50;66.30;;;;;;4197890;28;20799;-40
2021/01/07 12:00:52;;;;;;;0.00;0.00;;;16.50;66.60;;;;;;4211287;28;20056;-44
2021/01/07 12:03:14;;;;;;;0.00;0.00;;;16.40;66.90;;;;;;4214304;28;20048;-39
2021/01/07 12:05:38;;;;;;;0.00;0.00;;;16.50;66.70;;;;;;4214780;28;20059;-39
2021/01/07 12:08:06;;;;;;;1.27;0.57;;;16.60;66.00;;;;;;4213083;28;20098;-39
2021/01/07 12:10:30;;;;;;;0.00;0.00;;;16.80;65.60;;;;;;4213750;28;20056;-39
2021/01/07 12:13:02;;;;;;;0.00;0.00;;;16.80;65.60;;;;;;4214229;28;20722;-39
2021/01/07 12:15:24;;;;;;;0.05;0.05;;;16.90;65.60;;;;;;4197449;28;20056;-40
2021/01/07 12:17:45;;;;;;;0.17;0.15;;;17.00;65.40;;;;;;4212525;28;20048;-40
2021/01/07 12:20:08;;;;;;;0.00;0.00;;;17.10;65.20;;;;;;4214175;28;20052;-40
2021/01/07 12:22:31;;;;;;;0.57;0.57;;;17.20;65.00;;;;;;4214031;28;20112;-39
2021/01/07 12:24:54;;;;;;;0.00;0.00;;;17.20;64.80;;;;;;4197615;28;20048;-40